createdAt,value
2018-07-19T00:02:03.511Z,4.12
2018-07-19T00:04:31.148Z,3.67
2018-07-19T00:06:58.812Z,4.30
2018-07-19T00:09:26.540Z,3.65
2018-07-19T00:11:54.223Z,4.17
2018-07-19T00:14:22.175Z,3.65
2018-07-19T00:16:49.830Z,3.60
2018-07-19T00:19:17.510Z,3.70
2018-07-19T00:21:45.196Z,3.37
2018-07-19T00:24:12.896Z,3.17
2018-07-19T00:26:40.570Z,4.22
2018-07-19T00:29:08.266Z,3.35
2018-07-19T00:31:35.924Z,3.50
2018-07-19T00:34:03.635Z,3.20
2018-07-19T00:36:31.278Z,3.45
2018-07-19T00:38:58.955Z,3.77
2018-07-19T00:41:26.660Z,3.40
2018-07-19T00:43:54.368Z,4.17
2018-07-19T00:46:22.071Z,4.10
2018-07-19T00:48:49.716Z,4.00
2018-07-19T00:51:17.431Z,4.40
2018-07-19T00:53:45.100Z,3.92
2018-07-19T00:56:12.820Z,3.98
2018-07-19T00:58:40.495Z,3.75
2018-07-19T01:01:08.219Z,4.10
2018-07-19T01:03:35.871Z,3.15
2018-07-19T01:06:03.616Z,3.65
2018-07-19T01:08:31.312Z,4.03
2018-07-19T01:10:59.006Z,3.70
2018-07-19T01:13:26.664Z,4.30
2018-07-19T01:15:54.359Z,4.35
2018-07-19T01:18:22.036Z,3.60
2018-07-19T01:20:49.732Z,4.42
2018-07-19T01:23:17.440Z,3.50
2018-07-19T01:25:45.099Z,3.52
2018-07-19T01:28:12.771Z,3.30
2018-07-19T01:30:40.403Z,3.42
2018-07-19T01:33:08.104Z,3.65
2018-07-19T01:35:35.776Z,3.42
2018-07-19T01:38:03.438Z,3.22
2018-07-19T01:40:31.079Z,3.30
2018-07-19T01:42:58.747Z,3.70
2018-07-19T01:45:26.431Z,3.60
2018-07-19T01:47:54.121Z,4.00
2018-07-19T01:50:21.766Z,4.15
2018-07-19T01:52:49.448Z,3.77
2018-07-19T01:55:17.085Z,3.87
2018-07-19T01:57:44.767Z,4.15
2018-07-19T02:00:12.526Z,4.03
2018-07-19T02:02:40.178Z,3.67
2018-07-19T02:05:07.856Z,4.80
2018-07-19T02:07:35.527Z,3.80
2018-07-19T02:10:03.598Z,3.35
2018-07-19T02:12:31.251Z,3.70
2018-07-19T02:14:58.926Z,3.45
2018-07-19T02:17:26.561Z,3.42
2018-07-19T02:19:54.227Z,3.37
2018-07-19T02:22:21.913Z,3.70
2018-07-19T02:24:49.612Z,3.62
2018-07-19T02:27:17.275Z,3.50
2018-07-19T02:29:44.945Z,3.70
2018-07-19T02:32:12.587Z,3.47
2018-07-19T02:34:40.282Z,4.22
2018-07-19T02:37:08.008Z,3.60
2018-07-19T02:39:35.650Z,4.10
2018-07-19T02:42:03.332Z,3.47
2018-07-19T02:44:31.010Z,3.40
2018-07-19T02:46:58.665Z,3.80
2018-07-19T02:49:26.330Z,5.40
2018-07-19T02:51:53.987Z,5.30
2018-07-19T02:54:21.658Z,3.85
2018-07-19T02:56:49.361Z,4.30
2018-07-19T02:59:17.027Z,3.83
2018-07-19T03:01:44.716Z,4.15
2018-07-19T03:04:12.439Z,4.17
2018-07-19T03:06:40.131Z,4.20
2018-07-19T03:09:07.806Z,4.30
2018-07-19T03:11:35.578Z,3.92
2018-07-19T03:14:03.251Z,3.67
2018-07-19T03:16:30.986Z,4.03
2018-07-19T03:18:58.604Z,3.60
2018-07-19T03:21:26.333Z,3.30
2018-07-19T03:23:54.051Z,3.20
2018-07-19T03:26:21.695Z,4.08
2018-07-19T03:28:49.347Z,3.90
2018-07-19T03:31:17.109Z,3.90
2018-07-19T03:33:44.798Z,4.00
2018-07-19T03:36:12.456Z,3.90
2018-07-19T03:38:40.125Z,3.70
2018-07-19T03:41:08.518Z,4.83
2018-07-19T03:43:36.216Z,4.00
2018-07-19T03:46:03.876Z,4.10
2018-07-19T03:48:31.564Z,4.08
2018-07-19T03:50:59.203Z,4.33
2018-07-19T03:53:26.871Z,4.45
2018-07-19T03:55:54.566Z,3.83
2018-07-19T03:58:22.274Z,3.98
2018-07-19T04:00:49.959Z,4.00
2018-07-19T04:03:17.670Z,4.20
2018-07-19T04:05:45.347Z,3.95
2018-07-19T04:08:13.036Z,4.03
2018-07-19T04:10:40.691Z,3.90
2018-07-19T04:13:08.447Z,4.80
2018-07-19T04:15:36.132Z,4.20
2018-07-19T04:18:03.885Z,4.37
2018-07-19T04:20:32.188Z,4.17
2018-07-19T04:22:59.839Z,4.72
2018-07-19T04:25:27.613Z,4.78
2018-07-19T04:27:56.067Z,4.50
2018-07-19T04:30:23.780Z,4.97
2018-07-19T04:32:51.416Z,5.33
2018-07-19T04:35:19.644Z,4.60
2018-07-19T04:37:47.508Z,5.17
2018-07-19T04:40:15.343Z,5.25
2018-07-19T04:42:43.019Z,5.12
2018-07-19T04:45:10.831Z,5.15
2018-07-19T04:47:38.490Z,4.65
2018-07-19T04:50:06.231Z,5.28
2018-07-19T04:52:33.931Z,5.33
2018-07-19T04:55:01.722Z,5.55
2018-07-19T04:57:29.375Z,5.30
2018-07-19T04:59:57.058Z,5.20
2018-07-19T05:02:24.711Z,4.50
2018-07-19T05:04:52.376Z,4.75
2018-07-19T05:07:20.047Z,5.37
2018-07-19T05:09:47.894Z,5.45
2018-07-19T05:12:15.595Z,6.35
2018-07-19T05:14:43.469Z,5.97
2018-07-19T05:17:11.092Z,5.90
2018-07-19T05:19:38.758Z,5.85
2018-07-19T05:22:06.425Z,5.40
2018-07-19T05:24:34.080Z,6.00
2018-07-19T05:27:01.801Z,5.33
2018-07-19T05:29:29.451Z,4.87
2018-07-19T05:31:57.099Z,5.05
2018-07-19T05:34:24.775Z,5.45
2018-07-19T05:36:52.420Z,5.08
2018-07-19T05:39:21.585Z,5.83
2018-07-19T05:41:51.026Z,6.17
2018-07-19T05:44:18.733Z,5.70
2018-07-19T12:51:29.009Z,3.00
2018-07-19T12:53:56.693Z,3.17
2018-07-19T12:56:24.347Z,2.90
2018-07-19T12:59:08.802Z,2.60
2018-07-19T13:01:36.578Z,2.80
2018-07-19T13:04:04.335Z,3.10
2018-07-19T13:06:31.992Z,3.43
2018-07-19T13:09:00.924Z,3.63
2018-07-19T13:11:28.575Z,3.20
2018-07-19T13:13:56.840Z,3.17
2018-07-19T13:16:24.475Z,2.73
2018-07-19T13:18:55.784Z,2.87
2018-07-19T13:21:23.687Z,2.67
2018-07-19T13:23:51.796Z,2.80
2018-07-19T13:26:19.563Z,2.77
2018-07-19T13:28:48.022Z,2.53
2018-07-19T13:31:15.661Z,2.43
2018-07-19T13:33:43.306Z,3.03
2018-07-19T13:36:11.027Z,3.50
2018-07-19T13:38:38.626Z,2.70
2018-07-19T13:46:37.159Z,3.00
2018-07-19T13:49:04.967Z,3.30
2018-07-19T13:51:32.666Z,2.73
2018-07-19T13:54:20.401Z,2.67
2018-07-19T13:56:48.202Z,2.77
2018-07-19T13:59:17.778Z,2.70
2018-07-19T14:01:46.254Z,2.80
2018-07-19T14:04:14.624Z,2.37
2018-07-19T14:06:42.282Z,3.07
2018-07-19T14:09:12.106Z,3.20
2018-07-19T14:11:39.780Z,2.83
2018-07-19T14:14:07.401Z,3.50
2018-07-19T14:16:35.128Z,2.40
2018-07-19T14:19:02.896Z,2.60
2018-07-19T14:21:30.535Z,2.40
2018-07-19T14:23:58.303Z,2.70
2018-07-19T14:26:26.053Z,2.80
2018-07-19T14:28:53.932Z,2.77
2018-07-19T14:31:21.607Z,3.00
2018-07-19T14:33:49.251Z,2.80
2018-07-19T14:36:17.222Z,2.90
2018-07-19T14:38:57.301Z,2.70
2018-07-19T14:41:24.989Z,2.83
2018-07-19T14:43:54.539Z,2.80
2018-07-19T14:46:22.418Z,3.03
2018-07-19T14:48:50.284Z,3.00
2018-07-19T14:51:17.976Z,2.77
2018-07-19T14:53:45.624Z,3.23
2018-07-19T14:56:13.336Z,3.03
2018-07-19T14:58:41.123Z,2.67
2018-07-19T15:01:08.852Z,3.20
2018-07-19T15:03:36.771Z,3.00
2018-07-19T15:06:04.427Z,2.63
2018-07-19T15:08:32.146Z,2.73
2018-07-19T15:10:59.815Z,2.70
2018-07-19T15:13:27.523Z,2.87
2018-07-19T15:15:55.303Z,3.10
2018-07-19T15:18:23.033Z,3.20
2018-07-19T15:20:50.692Z,2.70
2018-07-19T15:23:18.363Z,2.40
2018-07-19T15:25:46.065Z,3.03
2018-07-19T15:28:13.751Z,2.60
2018-07-19T15:30:41.410Z,2.80
2018-07-19T15:33:09.068Z,2.90
2018-07-19T15:35:36.776Z,2.80
2018-07-19T15:38:04.502Z,2.80
2018-07-19T15:40:32.163Z,3.20
2018-07-19T15:42:59.803Z,3.30
2018-07-19T15:45:27.477Z,2.83
2018-07-19T15:47:55.121Z,3.00
2018-07-19T15:50:22.835Z,3.30
2018-07-19T15:52:50.484Z,3.23
2018-07-19T15:55:18.227Z,2.97
2018-07-19T15:57:45.835Z,2.80
2018-07-19T16:00:13.490Z,3.13
2018-07-19T16:02:41.163Z,2.70
2018-07-19T16:05:08.865Z,2.57
2018-07-19T16:07:36.536Z,3.00
2018-07-19T16:10:04.272Z,2.80
2018-07-19T16:12:31.950Z,3.20
2018-07-19T16:14:59.621Z,3.17
2018-07-19T16:17:27.312Z,2.80
2018-07-19T16:19:54.936Z,2.97
2018-07-19T16:22:22.645Z,3.10
2018-07-19T16:24:50.319Z,2.73
2018-07-19T16:27:17.966Z,2.60
2018-07-19T16:29:45.663Z,2.83
2018-07-19T16:32:13.379Z,3.37
2018-07-19T16:34:41.006Z,3.03
2018-07-19T16:37:08.635Z,2.80
2018-07-19T16:39:36.322Z,3.00
2018-07-19T16:42:04.044Z,3.33
2018-07-19T16:44:31.793Z,3.70
2018-07-19T16:46:59.451Z,2.80
2018-07-19T16:49:27.136Z,3.80
2018-07-19T16:51:54.876Z,2.90
2018-07-19T16:54:22.543Z,3.47
2018-07-19T16:56:50.221Z,3.10
2018-07-19T16:59:17.893Z,2.80
2018-07-19T17:01:45.586Z,2.53
2018-07-19T17:04:13.262Z,4.00
2018-07-19T17:06:40.934Z,3.33
2018-07-19T17:09:09.753Z,2.50
2018-07-19T17:11:37.487Z,3.33
2018-07-19T17:14:05.264Z,3.53
2018-07-19T17:16:32.910Z,3.13
2018-07-19T17:19:00.672Z,3.27
2018-07-19T17:21:28.416Z,3.13
2018-07-19T17:23:56.151Z,2.73
2018-07-19T17:26:23.881Z,3.73
2018-07-19T17:28:51.590Z,3.30
2018-07-19T17:31:19.572Z,2.63
2018-07-19T17:33:47.262Z,2.90
2018-07-19T17:36:15.011Z,2.97
2018-07-19T17:38:42.711Z,3.50
2018-07-19T17:41:10.442Z,3.77
2018-07-19T17:43:38.159Z,3.30
2018-07-19T17:46:05.925Z,3.30
2018-07-19T17:48:33.595Z,3.00
2018-07-19T17:51:01.355Z,3.30
2018-07-19T17:53:29.029Z,3.10
2018-07-19T17:55:56.739Z,3.50
2018-07-19T17:58:24.485Z,3.23
2018-07-19T18:00:52.215Z,3.53
2018-07-19T18:03:19.987Z,2.87
2018-07-19T18:05:47.713Z,3.13
2018-07-19T18:08:15.477Z,3.00
2018-07-19T18:10:43.837Z,3.07
2018-07-19T18:13:11.528Z,3.30
2018-07-19T18:15:39.236Z,3.10
2018-07-19T18:18:06.995Z,2.70
2018-07-19T18:20:34.722Z,2.83
2018-07-19T18:23:02.572Z,2.83
2018-07-19T18:25:30.275Z,3.50
2018-07-19T18:27:57.979Z,3.73
2018-07-19T18:30:25.741Z,3.10
2018-07-19T18:32:53.408Z,2.87
2018-07-19T18:35:21.105Z,3.50
2018-07-19T18:37:48.803Z,3.50
2018-07-19T18:40:16.520Z,2.90
2018-07-19T18:42:44.179Z,3.40
2018-07-19T18:45:11.942Z,3.53
2018-07-19T18:47:39.620Z,4.03
2018-07-19T18:50:07.417Z,3.57
2018-07-19T18:52:35.155Z,3.60
2018-07-19T18:55:03.029Z,3.40
2018-07-19T18:57:30.805Z,3.20
2018-07-19T18:59:58.515Z,3.40
2018-07-19T19:02:26.248Z,3.37
2018-07-19T19:04:53.967Z,3.40
2018-07-19T19:07:21.728Z,4.00
2018-07-19T19:09:49.485Z,3.77
2018-07-19T19:12:17.230Z,4.10
2018-07-19T19:14:44.925Z,4.20
2018-07-19T19:17:12.634Z,3.80
2018-07-19T19:19:40.338Z,3.77
2018-07-19T19:22:08.062Z,3.60
2018-07-19T19:24:35.761Z,3.90
2018-07-19T19:27:03.543Z,4.10
2018-07-19T19:29:31.243Z,3.60
2018-07-19T19:31:58.955Z,4.30
2018-07-19T19:34:26.683Z,4.00
2018-07-19T19:36:54.412Z,3.17
2018-07-19T19:39:22.142Z,3.90
2018-07-19T19:41:49.864Z,3.53
2018-07-19T19:44:17.611Z,3.43
2018-07-19T19:46:45.255Z,3.50
2018-07-19T19:49:12.992Z,3.30
2018-07-19T19:51:40.701Z,4.00
2018-07-19T19:54:08.429Z,3.20
2018-07-19T19:56:36.152Z,4.10
2018-07-19T19:59:03.956Z,4.00
2018-07-19T20:01:31.747Z,4.50
2018-07-19T20:03:59.467Z,5.20
2018-07-19T20:06:27.156Z,4.80
2018-07-19T20:08:54.828Z,4.27
2018-07-19T20:11:22.624Z,5.00
2018-07-19T20:13:50.379Z,4.70
2018-07-19T20:16:18.088Z,4.53
2018-07-19T20:18:45.771Z,4.50
2018-07-19T20:21:13.531Z,3.80
2018-07-19T20:23:41.316Z,3.87
2018-07-19T20:26:09.055Z,4.10
2018-07-19T20:28:36.784Z,4.60
2018-07-19T20:31:04.552Z,4.20
2018-07-19T20:33:32.257Z,4.10
2018-07-19T20:35:59.976Z,4.10
2018-07-19T20:38:27.678Z,3.80
2018-07-19T20:40:55.386Z,4.00
2018-07-19T20:43:23.166Z,4.53
2018-07-19T20:45:50.957Z,4.20
2018-07-19T20:48:18.728Z,3.90
2018-07-19T20:50:46.423Z,4.53
2018-07-19T20:53:14.160Z,3.97
2018-07-19T20:55:41.863Z,3.97
2018-07-19T20:58:09.616Z,4.07
2018-07-19T21:00:37.316Z,4.10
2018-07-19T21:03:05.054Z,4.50
2018-07-19T21:05:32.721Z,4.90
2018-07-19T21:08:00.424Z,4.70
2018-07-19T21:10:28.153Z,3.97
2018-07-19T21:12:55.839Z,4.00
2018-07-19T21:15:23.588Z,4.50
2018-07-19T21:17:51.328Z,4.37
2018-07-19T21:20:19.011Z,3.33
2018-07-19T21:22:46.699Z,3.80
2018-07-19T21:25:14.429Z,4.37
2018-07-19T21:27:42.137Z,4.53
2018-07-19T21:30:09.910Z,4.30
2018-07-19T21:32:37.634Z,3.83
2018-07-19T21:35:05.464Z,4.00
2018-07-19T21:37:33.151Z,4.50
2018-07-19T21:40:00.837Z,4.50
2018-07-19T21:42:28.518Z,4.27
2018-07-19T21:44:56.159Z,4.37
2018-07-19T21:47:24.244Z,4.10
2018-07-19T21:49:51.964Z,4.00
2018-07-19T21:52:19.644Z,4.17
2018-07-19T21:54:47.292Z,4.20
2018-07-19T21:57:15.012Z,4.27
2018-07-19T21:59:43.601Z,4.03
2018-07-19T22:02:12.767Z,4.70
2018-07-19T22:04:40.448Z,4.50
2018-07-19T22:07:08.167Z,4.17
2018-07-19T22:09:35.895Z,4.50
2018-07-19T22:12:03.552Z,4.10
2018-07-19T22:14:31.234Z,4.27
2018-07-19T22:16:58.978Z,4.47
2018-07-19T22:19:26.551Z,4.57
2018-07-19T22:21:54.250Z,4.00
2018-07-19T22:24:21.913Z,4.53
2018-07-19T22:26:49.547Z,4.87
2018-07-19T22:29:17.251Z,4.57
2018-07-19T22:31:44.930Z,4.70
2018-07-19T22:34:12.611Z,4.33
2018-07-19T22:36:40.260Z,4.73
2018-07-19T22:39:09.305Z,4.50
2018-07-19T22:41:36.996Z,4.77
2018-07-19T22:44:04.674Z,4.60
2018-07-19T22:46:32.370Z,4.70
2018-07-19T22:49:00.080Z,4.53
2018-07-19T22:51:27.726Z,5.53
2018-07-19T22:53:55.480Z,4.47
2018-07-19T22:56:23.161Z,4.70
2018-07-19T22:58:50.851Z,4.17
2018-07-19T23:01:18.680Z,4.63
2018-07-19T23:03:46.347Z,4.90
2018-07-19T23:06:14.008Z,5.50
2018-07-19T23:08:41.679Z,4.73
2018-07-19T23:11:09.364Z,5.00
2018-07-19T23:13:37.027Z,5.07
2018-07-19T23:16:04.752Z,4.97
2018-07-19T23:18:32.414Z,5.20
2018-07-19T23:21:00.104Z,4.83
2018-07-19T23:23:27.734Z,5.47
2018-07-19T23:25:55.388Z,6.13
2018-07-19T23:28:23.117Z,5.93
2018-07-19T23:30:50.840Z,6.37
2018-07-19T23:33:18.613Z,5.60
2018-07-19T23:35:50.448Z,6.57
2018-07-19T23:38:38.610Z,6.17
2018-07-19T23:41:10.675Z,6.47
2018-07-19T23:43:40.675Z,5.92
2018-07-19T23:46:11.978Z,6.20
2018-07-19T23:48:39.650Z,5.70
2018-07-19T23:51:07.316Z,6.17
2018-07-19T23:53:34.977Z,5.60
2018-07-19T23:56:02.669Z,6.00
2018-07-19T23:58:30.368Z,5.55
